createdAt,value
2019-04-03T00:00:05.498Z,0
2019-04-03T00:01:05.178Z,0
2019-04-03T00:02:05.120Z,0
2019-04-03T00:03:05.232Z,0
2019-04-03T00:04:05.345Z,0
2019-04-03T00:05:05.473Z,0
2019-04-03T00:06:06.357Z,0
2019-04-03T00:07:06.254Z,0
2019-04-03T00:08:02.992Z,0
2019-04-03T00:09:02.886Z,0
2019-04-03T00:10:07.388Z,0
2019-04-03T00:11:03.624Z,0
2019-04-03T00:12:02.768Z,0
2019-04-03T00:13:03.926Z,0
2019-04-03T00:14:03.638Z,0
2019-04-03T00:15:03.565Z,0
2019-04-03T00:16:02.593Z,0
2019-04-03T00:17:03.558Z,0
2019-04-03T00:18:03.515Z,0
2019-04-03T00:19:03.370Z,1.1
2019-04-03T00:20:03.355Z,0
2019-04-03T00:21:03.158Z,0
2019-04-03T00:22:03.250Z,2.5
2019-04-03T00:23:03.286Z,2.5
2019-04-03T00:24:03.008Z,3.6
2019-04-03T00:25:02.805Z,2.5
2019-04-03T00:26:03.113Z,1.1
2019-04-03T00:27:02.981Z,1.1
2019-04-03T00:28:03.610Z,0
2019-04-03T00:29:03.205Z,1.1
2019-04-03T00:30:02.884Z,2.5
2019-04-03T00:31:03.637Z,2.5
2019-04-03T00:32:02.893Z,2.5
2019-04-03T00:33:03.706Z,1.1
2019-04-03T00:34:02.958Z,1.1
2019-04-03T00:35:03.949Z,1.1
2019-04-03T00:36:03.913Z,1.1
2019-04-03T00:37:03.540Z,1.1
2019-04-03T00:38:03.726Z,0
2019-04-03T00:39:02.942Z,0
2019-04-03T00:40:03.161Z,0
2019-04-03T00:41:03.551Z,0
2019-04-03T00:42:03.360Z,1.1
2019-04-03T00:43:03.854Z,1.1
2019-04-03T00:44:03.453Z,0
2019-04-03T00:45:03.106Z,0
2019-04-03T00:46:03.225Z,0
2019-04-03T00:47:03.587Z,0
2019-04-03T00:48:02.942Z,0
2019-04-03T00:49:03.336Z,0
2019-04-03T00:50:03.184Z,0
2019-04-03T00:51:03.478Z,0
2019-04-03T00:52:03.037Z,0
2019-04-03T00:53:03.235Z,0
2019-04-03T00:54:03.083Z,0
2019-04-03T00:55:03.265Z,0
2019-04-03T00:56:03.207Z,0
2019-04-03T00:57:03.708Z,0
2019-04-03T00:58:02.742Z,0
2019-04-03T00:59:03.538Z,0
2019-04-03T01:00:04.029Z,0
2019-04-03T01:01:03.633Z,0
2019-04-03T01:02:03.784Z,0
2019-04-03T01:03:03.849Z,0
2019-04-03T01:04:03.355Z,0
2019-04-03T01:05:04.350Z,0
2019-04-03T01:06:03.783Z,0
2019-04-03T01:07:03.795Z,0
2019-04-03T01:08:03.162Z,0
2019-04-03T01:09:03.251Z,0
2019-04-03T01:10:03.444Z,0
2019-04-03T01:11:03.370Z,0
2019-04-03T01:12:03.257Z,0
2019-04-03T01:13:03.087Z,0
2019-04-03T01:14:03.114Z,0
2019-04-03T01:15:03.540Z,0
2019-04-03T01:16:03.282Z,0
2019-04-03T01:17:04.959Z,0
2019-04-03T01:18:05.495Z,0
2019-04-03T01:19:06.563Z,0
2019-04-03T01:20:07.042Z,0
2019-04-03T01:21:07.321Z,0
2019-04-03T01:22:03.434Z,0
2019-04-03T01:23:03.187Z,0
2019-04-03T01:24:03.123Z,0
2019-04-03T01:25:03.295Z,0
2019-04-03T01:26:03.047Z,0
2019-04-03T01:27:03.029Z,0
2019-04-03T01:28:03.319Z,0
2019-04-03T01:29:03.038Z,0
2019-04-03T01:30:03.140Z,0
2019-04-03T01:31:02.761Z,0
2019-04-03T01:32:03.927Z,0
2019-04-03T01:33:03.078Z,0
2019-04-03T01:34:02.820Z,0
2019-04-03T01:35:03.958Z,0
2019-04-03T01:36:02.978Z,0
2019-04-03T01:37:03.898Z,0
2019-04-03T01:38:03.533Z,0
2019-04-03T01:39:03.811Z,0
2019-04-03T01:40:03.402Z,0
2019-04-03T01:41:03.251Z,0
2019-04-03T01:42:03.410Z,0
2019-04-03T01:43:02.888Z,0
2019-04-03T01:44:03.277Z,0
2019-04-03T01:45:03.067Z,0
2019-04-03T01:46:02.922Z,0
2019-04-03T01:47:02.787Z,0
2019-04-03T01:48:03.994Z,0
2019-04-03T01:49:02.819Z,0
2019-04-03T01:50:03.046Z,0
2019-04-03T01:51:03.602Z,1.1
2019-04-03T01:52:03.856Z,0
2019-04-03T01:53:03.581Z,0
2019-04-03T01:54:03.940Z,0
2019-04-03T01:55:04.654Z,1.1
2019-04-03T01:56:05.526Z,1.1
2019-04-03T01:57:07.101Z,1.1
2019-04-03T01:58:07.327Z,1.1
2019-04-03T01:59:07.693Z,1.1
2019-04-03T02:00:03.639Z,1.1
2019-04-03T02:01:03.667Z,1.1
2019-04-03T02:02:03.366Z,1.1
2019-04-03T02:03:03.564Z,1.1
2019-04-03T02:04:03.204Z,1.1
2019-04-03T02:05:03.361Z,1.1
2019-04-03T02:06:03.081Z,1.1
2019-04-03T02:07:03.450Z,1.1
2019-04-03T02:08:03.084Z,1.1
2019-04-03T02:09:03.217Z,1.1
2019-04-03T02:10:03.318Z,0
2019-04-03T02:11:03.177Z,0
2019-04-03T02:12:03.112Z,0
2019-04-03T02:13:03.036Z,0
2019-04-03T02:14:03.824Z,0
2019-04-03T02:15:03.772Z,0
2019-04-03T02:16:03.995Z,0
2019-04-03T02:17:03.960Z,0
2019-04-03T02:18:03.531Z,0
2019-04-03T02:19:03.864Z,0
2019-04-03T02:20:03.970Z,0
2019-04-03T02:21:03.874Z,0
2019-04-03T02:22:03.626Z,0
2019-04-03T02:23:03.202Z,0
2019-04-03T02:24:03.453Z,0
2019-04-03T02:25:03.248Z,0
2019-04-03T02:26:03.600Z,0
2019-04-03T02:27:03.788Z,0
2019-04-03T02:28:05.840Z,0
2019-04-03T02:29:09.460Z,0
2019-04-03T02:30:03.468Z,0
2019-04-03T02:31:03.677Z,0
2019-04-03T02:32:03.169Z,0
2019-04-03T02:33:03.781Z,0
2019-04-03T02:34:03.662Z,0
2019-04-03T02:35:09.016Z,0
2019-04-03T02:36:02.931Z,0
2019-04-03T02:37:02.924Z,0
2019-04-03T02:38:03.013Z,0
2019-04-03T02:39:03.675Z,0
2019-04-03T02:40:03.564Z,0
2019-04-03T02:41:05.749Z,0
2019-04-03T02:42:10.569Z,0
2019-04-03T02:43:03.768Z,0
2019-04-03T02:44:04.250Z,0
2019-04-03T02:45:03.619Z,0
2019-04-03T02:46:03.801Z,2.5
2019-04-03T02:47:03.508Z,2.5
2019-04-03T02:48:07.465Z,2.5
2019-04-03T02:49:03.062Z,2.5
2019-04-03T02:50:03.882Z,2.5
2019-04-03T02:51:03.514Z,1.1
2019-04-03T02:52:03.745Z,0
2019-04-03T02:53:03.188Z,0
2019-04-03T02:54:03.639Z,0
2019-04-03T02:55:09.159Z,0
2019-04-03T02:56:03.721Z,0
2019-04-03T02:57:04.132Z,0
2019-04-03T02:58:03.128Z,1.1
2019-04-03T02:59:03.823Z,0
2019-04-03T03:00:03.091Z,0
2019-04-03T03:01:08.143Z,1.1
2019-04-03T03:02:03.125Z,2.5
2019-04-03T03:03:03.210Z,2.5
2019-04-03T03:04:03.786Z,3.6
2019-04-03T03:05:03.670Z,3.6
2019-04-03T03:06:03.557Z,1.1
2019-04-03T03:07:05.871Z,0
2019-04-03T03:08:04.001Z,0
2019-04-03T03:09:03.675Z,0
2019-04-03T03:10:04.170Z,0
2019-04-03T03:11:03.650Z,0
2019-04-03T03:12:03.795Z,0
2019-04-03T03:13:03.681Z,0
2019-04-03T03:14:08.553Z,0
2019-04-03T03:15:03.790Z,0
2019-04-03T03:16:03.705Z,0
2019-04-03T03:17:03.751Z,0
2019-04-03T03:18:02.980Z,0
2019-04-03T03:19:03.327Z,0
2019-04-03T03:20:08.340Z,0
2019-04-03T03:21:03.170Z,1.1
2019-04-03T03:22:02.912Z,1.1
2019-04-03T03:23:03.254Z,1.1
2019-04-03T03:24:03.745Z,1.1
2019-04-03T03:25:02.928Z,1.1
2019-04-03T03:26:06.535Z,1.1
2019-04-03T03:27:03.690Z,1.1
2019-04-03T03:28:04.045Z,1.1
2019-04-03T03:29:27.775Z,1.1
2019-04-03T03:31:07.382Z,0
2019-04-03T03:31:08.704Z,0
2019-04-03T03:32:37.740Z,0
2019-04-03T03:33:42.784Z,0
2019-04-03T03:34:06.987Z,0
2019-04-03T03:35:47.529Z,0
2019-04-03T03:36:06.165Z,0
2019-04-03T03:37:04.888Z,0
2019-04-03T03:38:08.407Z,0
2019-04-03T03:39:03.377Z,0
2019-04-03T03:40:03.623Z,0
2019-04-03T03:41:03.767Z,0
2019-04-03T03:42:03.217Z,0
2019-04-03T03:43:07.310Z,0
2019-04-03T03:44:02.709Z,0
2019-04-03T03:45:03.770Z,0
2019-04-03T03:46:03.588Z,0
2019-04-03T03:47:03.756Z,0
2019-04-03T03:48:11.444Z,0
2019-04-03T03:49:03.225Z,0
2019-04-03T03:50:03.576Z,0
2019-04-03T03:51:03.233Z,0
2019-04-03T03:52:06.668Z,0
2019-04-03T03:53:03.247Z,0
2019-04-03T03:54:03.299Z,0
2019-04-03T03:55:02.968Z,0
2019-04-03T03:56:03.327Z,0
2019-04-03T03:57:07.764Z,0
2019-04-03T03:58:03.969Z,0
2019-04-03T03:59:03.694Z,2.5
2019-04-03T04:00:03.843Z,0
2019-04-03T04:01:03.693Z,0
2019-04-03T04:02:07.258Z,0
2019-04-03T04:03:03.710Z,0
2019-04-03T04:04:03.545Z,0
2019-04-03T04:05:03.656Z,0
2019-04-03T04:06:03.338Z,0
2019-04-03T04:07:05.947Z,0
2019-04-03T04:08:03.466Z,0
2019-04-03T04:09:03.809Z,1.1
2019-04-03T04:10:03.532Z,0
2019-04-03T04:11:03.729Z,0
2019-04-03T04:12:07.890Z,0
2019-04-03T04:13:03.899Z,0
2019-04-03T04:14:03.317Z,0
2019-04-03T04:15:03.422Z,0
2019-04-03T04:16:05.804Z,0
2019-04-03T04:17:19.160Z,0
2019-04-03T04:18:03.187Z,0
2019-04-03T04:19:03.256Z,0
2019-04-03T04:20:06.621Z,0
2019-04-03T04:21:04.179Z,0
2019-04-03T04:22:03.854Z,0
2019-04-03T04:23:03.265Z,0
2019-04-03T04:24:03.569Z,0
2019-04-03T04:25:04.036Z,0
2019-04-03T04:26:02.846Z,0
2019-04-03T04:27:04.211Z,0
2019-04-03T04:28:02.713Z,0
2019-04-03T04:29:03.141Z,0
2019-04-03T04:30:04.110Z,0
2019-04-03T04:31:03.867Z,0
2019-04-03T04:32:03.502Z,0
2019-04-03T04:33:03.449Z,0
2019-04-03T04:34:03.139Z,0
2019-04-03T04:35:03.014Z,0
2019-04-03T04:36:03.743Z,0
2019-04-03T04:37:03.695Z,0
2019-04-03T04:38:03.190Z,0
2019-04-03T04:39:03.405Z,0
2019-04-03T04:40:03.625Z,0
2019-04-03T04:41:03.745Z,0
2019-04-03T04:42:05.016Z,0
2019-04-03T04:43:08.773Z,0
2019-04-03T04:44:03.366Z,0
2019-04-03T04:45:03.621Z,2.5
2019-04-03T04:46:03.221Z,0
2019-04-03T04:47:03.047Z,0
2019-04-03T04:48:03.186Z,0
2019-04-03T04:49:03.180Z,0
2019-04-03T04:50:03.337Z,0
2019-04-03T04:51:03.041Z,0
2019-04-03T04:52:03.021Z,0
2019-04-03T04:53:02.840Z,0
2019-04-03T04:54:03.161Z,0
2019-04-03T04:55:03.972Z,0
2019-04-03T04:56:07.874Z,0
2019-04-03T04:57:03.815Z,0
2019-04-03T04:58:05.576Z,0
2019-04-03T04:59:03.902Z,0
2019-04-03T05:00:03.653Z,0
2019-04-03T05:01:03.023Z,0
2019-04-03T05:02:03.739Z,0
2019-04-03T05:03:03.676Z,0
2019-04-03T05:04:04.041Z,0
2019-04-03T05:05:04.078Z,0
2019-04-03T05:06:03.776Z,0
2019-04-03T05:07:03.090Z,0
2019-04-03T05:08:03.764Z,0
2019-04-03T05:09:04.676Z,0
2019-04-03T05:10:06.871Z,0
2019-04-03T05:11:03.061Z,0
2019-04-03T05:12:03.334Z,0
2019-04-03T05:13:02.972Z,0
2019-04-03T05:14:02.934Z,0
2019-04-03T05:15:03.524Z,0
2019-04-03T05:16:03.838Z,0
2019-04-03T05:17:03.104Z,0
2019-04-03T05:18:03.568Z,0
2019-04-03T05:19:20.102Z,0
2019-04-03T05:20:02.916Z,0
2019-04-03T05:21:03.153Z,0
2019-04-03T05:22:03.008Z,0
2019-04-03T05:23:03.119Z,0
2019-04-03T05:24:14.336Z,0
2019-04-03T05:25:03.144Z,0
2019-04-03T05:26:02.820Z,0
2019-04-03T05:27:03.984Z,0
2019-04-03T05:28:05.107Z,0
2019-04-03T05:29:05.273Z,0
2019-04-03T05:30:07.254Z,0
2019-04-03T05:31:03.562Z,0
2019-04-03T05:32:03.720Z,0
2019-04-03T05:33:03.416Z,0
2019-04-03T05:34:03.079Z,0
2019-04-03T05:35:03.684Z,0
2019-04-03T05:36:03.931Z,0
2019-04-03T05:37:03.232Z,0
2019-04-03T05:38:03.575Z,0
2019-04-03T05:39:03.790Z,0
2019-04-03T05:40:03.769Z,0
2019-04-03T05:41:03.176Z,1.1
2019-04-03T05:42:03.326Z,0
2019-04-03T05:43:03.291Z,0
2019-04-03T05:44:03.681Z,0
2019-04-03T05:45:05.169Z,0
2019-04-03T05:46:06.579Z,0
2019-04-03T05:47:03.170Z,0
2019-04-03T05:48:05.079Z,0
2019-04-03T05:49:03.027Z,0
2019-04-03T05:50:03.810Z,0
2019-04-03T05:51:02.943Z,0
2019-04-03T05:52:04.954Z,0
2019-04-03T05:53:07.147Z,1.1
2019-04-03T05:54:03.175Z,1.1
2019-04-03T05:55:03.962Z,2.5
2019-04-03T05:56:03.511Z,2.5
2019-04-03T05:57:03.344Z,2.5
2019-04-03T05:58:03.423Z,1.1
2019-04-03T05:59:03.645Z,1.1
2019-04-03T06:00:07.827Z,1.1
2019-04-03T06:01:12.301Z,1.1
2019-04-03T06:02:22.625Z,1.1
2019-04-03T06:03:03.772Z,1.1
2019-04-03T06:04:03.433Z,1.1
2019-04-03T06:05:08.122Z,1.1
2019-04-03T06:06:03.603Z,1.1
2019-04-03T06:07:03.590Z,1.1
2019-04-03T06:08:02.949Z,1.1
2019-04-03T06:09:03.073Z,1.1
2019-04-03T06:10:03.308Z,0
2019-04-03T06:11:10.031Z,0
2019-04-03T06:12:03.010Z,0
2019-04-03T06:13:06.892Z,0
2019-04-03T06:14:03.143Z,0
2019-04-03T06:15:03.160Z,0
2019-04-03T06:16:04.005Z,0
2019-04-03T06:17:03.169Z,0
2019-04-03T06:18:02.867Z,0
2019-04-03T06:19:07.541Z,0
2019-04-03T06:20:03.721Z,0
2019-04-03T06:21:03.633Z,1.1
2019-04-03T06:22:03.894Z,1.1
2019-04-03T06:23:03.475Z,1.1
2019-04-03T06:24:02.941Z,0
2019-04-03T06:25:03.710Z,0
2019-04-03T06:26:03.760Z,1.1
2019-04-03T06:27:04.000Z,1.1
2019-04-03T06:28:03.828Z,1.1
2019-04-03T06:29:08.262Z,1.1
2019-04-03T06:30:03.381Z,1.1
2019-04-03T06:31:04.020Z,1.1
2019-04-03T06:32:06.682Z,0
2019-04-03T06:33:03.349Z,0
2019-04-03T06:34:08.283Z,0
2019-04-03T06:35:03.418Z,0
2019-04-03T06:36:03.243Z,0
2019-04-03T06:37:03.690Z,0
2019-04-03T06:38:03.687Z,0
2019-04-03T06:39:03.587Z,0
2019-04-03T06:40:04.499Z,0
2019-04-03T06:41:03.275Z,0
2019-04-03T06:42:03.425Z,0
2019-04-03T06:43:03.293Z,0
2019-04-03T06:44:03.252Z,0
2019-04-03T06:45:03.034Z,0
2019-04-03T06:46:03.077Z,0
2019-04-03T06:47:03.217Z,1.1
2019-04-03T06:48:05.848Z,1.1
2019-04-03T06:49:02.814Z,0
2019-04-03T06:50:03.619Z,2.5
2019-04-03T06:51:03.853Z,1.1
2019-04-03T06:52:03.589Z,1.1
2019-04-03T06:53:03.642Z,2.5
2019-04-03T06:54:03.850Z,0
2019-04-03T06:55:04.816Z,0
2019-04-03T06:56:03.091Z,1.1
2019-04-03T06:57:03.623Z,0
2019-04-03T06:58:03.402Z,0
2019-04-03T06:59:03.387Z,1.1
2019-04-03T07:00:03.637Z,0
2019-04-03T07:01:03.617Z,0
2019-04-03T07:02:03.808Z,0
2019-04-03T07:03:04.790Z,2.5
2019-04-03T07:04:07.779Z,1.1
2019-04-03T07:05:03.638Z,1.1
2019-04-03T07:06:03.596Z,1.1
2019-04-03T07:07:03.708Z,1.1
2019-04-03T07:08:06.618Z,1.1
2019-04-03T07:09:05.762Z,1.1
2019-04-03T07:10:10.353Z,0
2019-04-03T07:11:03.131Z,0
2019-04-03T07:12:03.292Z,1.1
2019-04-03T07:13:03.417Z,0
2019-04-03T07:14:03.922Z,0
2019-04-03T07:15:03.347Z,1.1
2019-04-03T07:16:04.063Z,2.5
2019-04-03T07:17:06.639Z,1.1
2019-04-03T07:18:07.367Z,2.5
2019-04-03T07:19:03.843Z,1.1
2019-04-03T07:20:21.388Z,0
2019-04-03T07:21:03.835Z,0
2019-04-03T07:22:03.477Z,0
2019-04-03T07:23:03.315Z,1.1
2019-04-03T07:24:03.678Z,1.1
2019-04-03T07:25:04.603Z,0
2019-04-03T07:26:05.875Z,0
2019-04-03T07:27:07.124Z,0
2019-04-03T07:28:03.515Z,0
2019-04-03T07:29:03.672Z,0
2019-04-03T07:30:03.966Z,0
2019-04-03T07:31:03.353Z,0
2019-04-03T07:32:03.497Z,0
2019-04-03T07:33:06.629Z,1.1
2019-04-03T07:34:04.251Z,2.5
2019-04-03T07:35:10.968Z,1.1
2019-04-03T07:36:03.958Z,1.1
2019-04-03T07:37:03.367Z,0
2019-04-03T07:38:03.982Z,0
2019-04-03T07:39:03.152Z,0
2019-04-03T07:40:03.956Z,0
2019-04-03T07:41:03.239Z,0
2019-04-03T07:42:03.982Z,0
2019-04-03T07:43:04.062Z,0
2019-04-03T07:44:03.961Z,0
2019-04-03T07:45:03.722Z,0
2019-04-03T07:46:04.309Z,0
2019-04-03T07:47:04.990Z,0
2019-04-03T07:48:07.353Z,0
2019-04-03T07:49:03.013Z,0
2019-04-03T07:50:03.717Z,0
2019-04-03T07:51:03.768Z,0
2019-04-03T07:52:03.411Z,0
2019-04-03T07:53:03.552Z,0
2019-04-03T07:54:05.192Z,2.5
2019-04-03T07:55:03.538Z,2.5
2019-04-03T07:56:03.236Z,1.1
2019-04-03T07:57:03.064Z,1.1
2019-04-03T07:58:04.147Z,1.1
2019-04-03T07:59:04.950Z,1.1
2019-04-03T08:00:07.845Z,1.1
2019-04-03T08:01:02.993Z,1.1
2019-04-03T08:02:03.422Z,1.1
2019-04-03T08:03:03.190Z,1.1
2019-04-03T08:04:03.306Z,1.1
2019-04-03T08:05:03.906Z,1.1
2019-04-03T08:06:05.247Z,1.1
2019-04-03T08:07:03.894Z,1.1
2019-04-03T08:08:03.149Z,1.1
2019-04-03T08:09:10.729Z,2.5
2019-04-03T08:10:03.752Z,0
2019-04-03T08:11:03.426Z,1.1
2019-04-03T08:12:04.848Z,0
2019-04-03T08:13:07.789Z,0
2019-04-03T08:14:04.012Z,0
2019-04-03T08:15:03.857Z,0
2019-04-03T08:16:04.099Z,0
2019-04-03T08:17:03.689Z,0
2019-04-03T08:18:04.146Z,1.1
2019-04-03T08:19:03.382Z,1.1
2019-04-03T08:20:03.407Z,0
2019-04-03T08:21:03.480Z,0
2019-04-03T08:22:03.259Z,1.1
2019-04-03T08:23:07.334Z,0
2019-04-03T08:24:03.324Z,0
2019-04-03T08:25:03.768Z,0
2019-04-03T08:26:03.473Z,2.5
2019-04-03T08:27:03.959Z,2.5
2019-04-03T08:28:03.286Z,0
2019-04-03T08:29:03.745Z,0
2019-04-03T08:30:03.903Z,1.1
2019-04-03T08:31:03.593Z,0
2019-04-03T08:32:03.385Z,0
2019-04-03T08:33:28.357Z,0
2019-04-03T08:34:19.058Z,1.1
2019-04-03T08:35:05.146Z,0
2019-04-03T08:36:08.648Z,0
2019-04-03T08:37:04.374Z,0
2019-04-03T08:38:04.202Z,0
2019-04-03T08:39:02.885Z,0
2019-04-03T08:40:03.931Z,0
2019-04-03T08:41:04.706Z,2.5
2019-04-03T08:42:03.733Z,0
2019-04-03T08:43:03.163Z,1.1
2019-04-03T08:44:09.483Z,1.1
2019-04-03T08:45:08.042Z,0
2019-04-03T08:46:03.469Z,0
2019-04-03T08:47:03.598Z,2.5
2019-04-03T08:48:07.931Z,3.6
2019-04-03T08:49:03.507Z,2.5
2019-04-03T08:50:03.443Z,2.5
2019-04-03T08:51:04.177Z,1.1
2019-04-03T08:52:06.390Z,2.5
2019-04-03T08:53:02.980Z,0
2019-04-03T08:54:03.319Z,0
2019-04-03T08:55:03.297Z,0
2019-04-03T08:56:03.788Z,0
2019-04-03T08:57:03.441Z,1.1
2019-04-03T08:58:03.363Z,3.6
2019-04-03T08:59:03.076Z,0
2019-04-03T09:00:03.153Z,2.5
2019-04-03T09:01:05.669Z,0
2019-04-03T09:02:03.382Z,0
2019-04-03T09:03:05.078Z,1.1
2019-04-03T09:04:03.716Z,1.1
2019-04-03T09:05:03.776Z,2.5
2019-04-03T09:06:03.503Z,5
2019-04-03T09:07:03.646Z,1.1
2019-04-03T09:08:03.384Z,2.5
2019-04-03T09:09:03.522Z,2.5
2019-04-03T09:10:03.698Z,2.5
2019-04-03T09:11:06.200Z,1.1
2019-04-03T09:12:06.912Z,3.6
2019-04-03T09:13:24.353Z,3.6
2019-04-03T09:14:03.754Z,1.1
2019-04-03T09:15:03.515Z,5
2019-04-03T09:16:03.517Z,5
2019-04-03T09:17:04.374Z,2.5
2019-04-03T09:18:07.959Z,3.6
2019-04-03T09:19:03.081Z,3.6
2019-04-03T09:20:03.181Z,3.6
2019-04-03T09:21:03.025Z,2.5
2019-04-03T09:22:03.272Z,1.1
2019-04-03T09:23:03.060Z,3.6
2019-04-03T09:24:03.654Z,2.5
2019-04-03T09:25:03.765Z,2.5
2019-04-03T09:26:04.165Z,1.1
2019-04-03T09:27:03.201Z,1.1
2019-04-03T09:28:03.346Z,0
2019-04-03T09:29:03.852Z,0
2019-04-03T09:30:04.240Z,0
2019-04-03T09:31:03.874Z,0
2019-04-03T09:32:03.614Z,0
2019-04-03T09:33:03.997Z,0
2019-04-03T09:34:03.625Z,1.1
2019-04-03T09:35:04.317Z,2.5
2019-04-03T09:36:05.354Z,3.6
2019-04-03T09:37:07.871Z,2.5
2019-04-03T09:38:03.698Z,1.1
2019-04-03T09:39:03.659Z,1.1
2019-04-03T09:40:04.029Z,3.6
2019-04-03T09:41:03.528Z,1.1
2019-04-03T09:42:03.120Z,3.6
2019-04-03T09:43:03.963Z,2.5
2019-04-03T09:44:03.713Z,0
2019-04-03T09:45:03.323Z,1.1
2019-04-03T09:46:03.592Z,0
2019-04-03T09:47:04.063Z,0
2019-04-03T09:48:06.519Z,0
2019-04-03T09:49:02.905Z,1.1
2019-04-03T09:50:03.360Z,2.5
2019-04-03T09:51:03.419Z,2.5
2019-04-03T09:52:02.830Z,1.1
2019-04-03T09:53:03.720Z,2.5
2019-04-03T09:54:04.105Z,2.5
2019-04-03T09:55:03.420Z,2.5
2019-04-03T09:56:03.787Z,0
2019-04-03T09:57:06.589Z,1.1
2019-04-03T09:58:05.141Z,2.5
2019-04-03T09:59:08.391Z,1.1
2019-04-03T10:00:04.000Z,0
2019-04-03T10:01:03.054Z,1.1
2019-04-03T10:02:03.054Z,1.1
2019-04-03T10:03:06.303Z,1.1
2019-04-03T10:04:03.545Z,1.1
2019-04-03T10:05:04.216Z,1.1
2019-04-03T10:06:04.076Z,1.1
2019-04-03T10:07:04.200Z,1.1
2019-04-03T10:08:04.043Z,1.1
2019-04-03T10:09:03.697Z,1.1
2019-04-03T10:10:04.194Z,2.5
2019-04-03T10:11:03.773Z,1.1
2019-04-03T10:12:03.625Z,0
2019-04-03T10:13:03.380Z,1.1
2019-04-03T10:14:03.423Z,1.1
2019-04-03T10:15:03.305Z,1.1
2019-04-03T10:16:05.053Z,6.1
2019-04-03T10:17:08.538Z,2.5
2019-04-03T10:18:03.360Z,1.1
2019-04-03T10:19:03.656Z,0
2019-04-03T10:20:02.888Z,1.1
2019-04-03T10:21:03.589Z,1.1
2019-04-03T10:22:03.284Z,0
2019-04-03T10:23:03.111Z,0
2019-04-03T10:24:03.180Z,1.1
2019-04-03T10:25:06.574Z,1.1
2019-04-03T10:26:03.261Z,3.6
2019-04-03T10:27:02.928Z,5
2019-04-03T10:28:03.625Z,1.1
2019-04-03T10:29:03.210Z,0
2019-04-03T10:30:03.674Z,1.1
2019-04-03T10:31:03.754Z,0
2019-04-03T10:32:03.924Z,0
2019-04-03T10:33:03.596Z,1.1
2019-04-03T10:34:05.018Z,2.5
2019-04-03T10:35:03.257Z,1.1
2019-04-03T10:36:03.641Z,2.5
2019-04-03T10:37:03.398Z,1.1
2019-04-03T10:38:03.538Z,1.1
2019-04-03T10:39:03.924Z,0
2019-04-03T10:40:03.855Z,1.1
2019-04-03T10:41:03.410Z,3.6
2019-04-03T10:42:04.104Z,5
2019-04-03T10:43:06.988Z,5
2019-04-03T10:44:03.007Z,6.1
2019-04-03T10:45:03.860Z,2.5
2019-04-03T10:46:03.150Z,1.1
2019-04-03T10:47:03.545Z,3.6
2019-04-03T10:48:03.433Z,5
2019-04-03T10:49:03.348Z,0
2019-04-03T10:50:06.040Z,1.1
2019-04-03T10:51:03.153Z,5
2019-04-03T10:52:03.059Z,7.2
2019-04-03T10:53:03.592Z,5
2019-04-03T10:54:03.576Z,2.5
2019-04-03T10:55:02.873Z,3.6
2019-04-03T10:56:03.467Z,9.7
2019-04-03T10:57:03.778Z,6.1
2019-04-03T10:58:09.348Z,6.1
2019-04-03T10:59:19.225Z,5
2019-04-03T11:00:03.478Z,7.2
2019-04-03T11:01:02.723Z,7.2
2019-04-03T11:02:04.162Z,7.2
2019-04-03T11:03:04.249Z,11.2
2019-04-03T11:04:02.911Z,5
2019-04-03T11:05:04.102Z,3.6
2019-04-03T11:06:04.101Z,7.2
2019-04-03T11:07:03.745Z,7.2
2019-04-03T11:08:03.852Z,7.2
2019-04-03T11:09:03.715Z,7.2
2019-04-03T11:10:03.799Z,3.6
2019-04-03T11:11:05.379Z,5
2019-04-03T11:12:03.185Z,7.2
2019-04-03T11:13:04.593Z,3.6
2019-04-03T11:14:08.789Z,7.2
2019-04-03T11:15:03.254Z,9.7
2019-04-03T11:16:03.324Z,6.1
2019-04-03T11:17:03.282Z,6.1
2019-04-03T11:18:03.086Z,9.7
2019-04-03T11:19:08.210Z,9.7
2019-04-03T11:20:03.357Z,3.6
2019-04-03T11:21:03.550Z,3.6
2019-04-03T11:22:03.243Z,5
2019-04-03T11:23:09.138Z,5
2019-04-03T11:24:08.358Z,5
2019-04-03T11:25:03.439Z,3.6
2019-04-03T11:26:03.006Z,8.6
2019-04-03T11:27:04.091Z,12.2
2019-04-03T11:28:07.222Z,13.3
2019-04-03T11:29:04.044Z,6.1
2019-04-03T11:30:03.894Z,2.5
2019-04-03T11:31:03.474Z,2.5
2019-04-03T11:32:03.855Z,11.2
2019-04-03T11:33:03.754Z,8.6
2019-04-03T11:34:03.896Z,9.7
2019-04-03T11:35:03.859Z,12.2
2019-04-03T11:36:03.531Z,13.3
2019-04-03T11:37:04.175Z,6.1
2019-04-03T11:38:30.113Z,7.2
2019-04-03T11:39:17.057Z,5
2019-04-03T11:40:06.701Z,11.2
2019-04-03T11:41:24.584Z,9.7
2019-04-03T11:42:03.313Z,2.5
2019-04-03T11:43:03.727Z,5
2019-04-03T11:44:03.191Z,9.7
2019-04-03T11:45:05.810Z,7.2
2019-04-03T11:46:03.055Z,9.7
2019-04-03T11:47:02.961Z,6.1
2019-04-03T11:48:03.729Z,8.6
2019-04-03T11:49:03.831Z,9.7
2019-04-03T11:50:03.945Z,11.2
2019-04-03T11:51:03.669Z,3.6
2019-04-03T11:52:04.234Z,3.6
2019-04-03T11:53:08.628Z,2.5
2019-04-03T11:54:09.247Z,8.6
2019-04-03T11:55:03.882Z,8.6
2019-04-03T11:56:03.806Z,6.1
2019-04-03T11:57:03.592Z,3.6
2019-04-03T11:58:02.952Z,12.2
2019-04-03T11:59:03.605Z,12.2
2019-04-03T12:00:03.541Z,5
2019-04-03T12:01:03.626Z,8.6
2019-04-03T12:02:03.234Z,8.6
2019-04-03T12:03:03.601Z,8.6
2019-04-03T12:04:03.336Z,8.6
2019-04-03T12:05:03.511Z,8.6
2019-04-03T12:06:03.897Z,8.6
2019-04-03T12:07:04.099Z,8.6
2019-04-03T12:08:03.508Z,8.6
2019-04-03T12:09:03.554Z,8.6
2019-04-03T12:10:05.095Z,7.2
2019-04-03T12:11:07.724Z,9.7
2019-04-03T12:12:03.398Z,1.1
2019-04-03T12:13:05.018Z,2.5
2019-04-03T12:14:03.170Z,3.6
2019-04-03T12:15:03.607Z,5
2019-04-03T12:16:03.070Z,8.6
2019-04-03T12:17:03.680Z,8.6
2019-04-03T12:18:03.207Z,7.2
2019-04-03T12:19:07.152Z,11.2
2019-04-03T12:20:03.342Z,13.3
2019-04-03T12:21:04.231Z,13.3
2019-04-03T12:22:04.702Z,6.1
2019-04-03T12:23:04.175Z,3.6
2019-04-03T12:24:03.956Z,3.6
2019-04-03T12:25:04.137Z,6.1
2019-04-03T12:26:04.067Z,6.1
2019-04-03T12:27:03.626Z,6.1
2019-04-03T12:28:07.751Z,3.6
2019-04-03T12:29:08.454Z,2.5
2019-04-03T12:30:03.567Z,3.6
2019-04-03T12:31:03.078Z,5
2019-04-03T12:32:10.503Z,8.6
2019-04-03T12:33:03.802Z,15.8
2019-04-03T12:34:07.780Z,8.6
2019-04-03T12:35:03.632Z,8.6
2019-04-03T12:36:07.554Z,3.6
2019-04-03T12:37:03.945Z,7.2
2019-04-03T12:38:02.977Z,6.1
2019-04-03T12:39:03.317Z,5
2019-04-03T12:40:03.004Z,8.6
2019-04-03T12:41:06.667Z,3.6
2019-04-03T12:42:02.868Z,9.7
2019-04-03T12:43:03.619Z,3.6
2019-04-03T12:44:03.802Z,3.6
2019-04-03T12:45:04.428Z,3.6
2019-04-03T12:46:03.947Z,5
2019-04-03T12:47:14.367Z,11.2
2019-04-03T12:48:03.810Z,6.1
2019-04-03T12:49:08.969Z,2.5
2019-04-03T12:50:04.355Z,5
2019-04-03T12:51:03.483Z,7.2
2019-04-03T12:52:05.442Z,6.1
2019-04-03T12:53:03.829Z,5
2019-04-03T12:54:03.228Z,6.1
2019-04-03T12:55:03.453Z,12.2
2019-04-03T12:56:03.155Z,7.2
2019-04-03T12:57:03.650Z,3.6
2019-04-03T12:58:06.558Z,7.2
2019-04-03T12:59:03.537Z,7.2
2019-04-03T13:00:03.170Z,9.7
2019-04-03T13:01:03.018Z,11.2
2019-04-03T13:02:02.971Z,9.7
2019-04-03T13:03:03.734Z,7.2
2019-04-03T13:04:03.891Z,5
2019-04-03T13:05:08.112Z,5
2019-04-03T13:06:03.169Z,12.2
2019-04-03T13:07:06.652Z,6.1
2019-04-03T13:08:03.369Z,11.2
2019-04-03T13:09:04.191Z,9.7
2019-04-03T13:10:08.937Z,7.2
2019-04-03T13:11:03.166Z,2.5
2019-04-03T13:12:04.274Z,3.6
2019-04-03T13:13:03.780Z,5
2019-04-03T13:14:03.851Z,6.1
2019-04-03T13:15:07.162Z,2.5
2019-04-03T13:16:03.786Z,6.1
2019-04-03T13:17:04.120Z,6.1
2019-04-03T13:18:03.608Z,5
2019-04-03T13:19:03.570Z,9.7
2019-04-03T13:20:06.875Z,11.2
2019-04-03T13:21:03.501Z,8.6
2019-04-03T13:22:03.938Z,7.2
2019-04-03T13:23:03.403Z,7.2
2019-04-03T13:24:04.093Z,7.2
2019-04-03T13:25:03.354Z,7.2
2019-04-03T13:26:03.434Z,8.6
2019-04-03T13:27:03.333Z,6.1
2019-04-03T13:28:05.188Z,6.1
2019-04-03T13:29:09.659Z,6.1
2019-04-03T13:30:14.622Z,6.1
2019-04-03T13:31:03.812Z,12.2
2019-04-03T13:32:03.239Z,7.2
2019-04-03T13:33:08.167Z,13.3
2019-04-03T13:34:03.449Z,9.7
2019-04-03T13:35:06.624Z,11.2
2019-04-03T13:36:04.248Z,11.2
2019-04-03T13:37:03.640Z,8.6
2019-04-03T13:38:04.303Z,8.6
2019-04-03T13:39:03.786Z,6.1
2019-04-03T13:40:07.751Z,9.7
2019-04-03T13:41:06.020Z,11.2
2019-04-03T13:42:03.446Z,8.6
2019-04-03T13:43:03.311Z,7.2
2019-04-03T13:44:03.519Z,9.7
2019-04-03T13:45:03.330Z,6.1
2019-04-03T13:46:06.512Z,6.1
2019-04-03T13:47:03.285Z,7.2
2019-04-03T13:48:03.551Z,11.2
2019-04-03T13:49:03.033Z,8.6
2019-04-03T13:50:03.934Z,9.7
2019-04-03T13:51:03.245Z,12.2
2019-04-03T13:52:10.939Z,9.7
2019-04-03T13:53:03.130Z,8.6
2019-04-03T13:54:03.279Z,3.6
2019-04-03T13:55:04.209Z,5
2019-04-03T13:56:12.919Z,6.1
2019-04-03T13:57:03.368Z,8.6
2019-04-03T13:58:03.664Z,8.6
2019-04-03T13:59:03.495Z,14.8
2019-04-03T14:00:24.448Z,11.2
2019-04-03T14:01:10.298Z,9.7
2019-04-03T14:02:04.177Z,9.7
2019-04-03T14:03:03.798Z,9.7
2019-04-03T14:04:04.010Z,9.7
2019-04-03T14:05:03.582Z,9.7
2019-04-03T14:06:06.177Z,9.7
2019-04-03T14:07:09.937Z,9.7
2019-04-03T14:08:08.509Z,9.7
2019-04-03T14:09:03.354Z,2.5
2019-04-03T14:10:03.527Z,6.1
2019-04-03T14:11:02.947Z,3.6
2019-04-03T14:12:07.634Z,3.6
2019-04-03T14:13:03.242Z,7.2
2019-04-03T14:14:03.466Z,6.1
2019-04-03T14:15:05.821Z,5